マヘ島 の空港の天気 - METARとTAF

セーシェル国際空港 ( FSIA / SEZ ) - セーシェル マヘ島
飛行場実況気象(Metar)
観測時間06/24 13:47 SCT (06/24 09:47 UTC)
風向・風速東南東 8m/s 瞬間風速13m/s
視程10km以上
天気現象
少しの雲 雲底高度 670m
気温30℃
湿度75%
気圧1009hPa
METARFSIA 240947Z 12015G25KT 090V160 9999 FEW022 30/25 Q1009 NOSIG
過去の天気等 Google飛行場航空写真 Wunderground天気予報

過去48時間のMETAR

飛行場予報(TAF)
発表時間: 6/24 09:05 SCT (6/24 05:05 UTC)
予報対象時間: 24日10時 SCT ~ 25日10時 SCT
風向・風速南南東 5m/s
視程10km以上
全天の4割程度の雲 雲底高度 670m
24日12時 SCT ~ 24日16時 SCT に 確率 30% で一時的に
天気現象弱いしゅう雨
全天の8割程度の雲 雲底高度 610m
25日4時 SCT ~ 25日10時 SCT に一時的に
視程8000m
天気現象弱いしゅう雨
全天の8割程度の雲 雲底高度 550m
TAF FSIA 240505Z 2406/2506 16010KT 9999 SCT022
PROB30 TEMPO 2408/2412 -SHRA BKN020
TEMPO 2500/2506 8000 -SHRA BKN018